Time;durP1;ratioP1;P1;durP2;ratioP2;P2;SDS_P1;SDS_P2;PMS_P1;PMS_P2;Temp;Humidity;BMP_temperature;BMP_pressure;BME280_temperature;BME280_humidity;BME280_pressure;Samples;Min_cycle;Max_cycle;Signal;HPM_P1;HPM_P2
2023/08/12 07:08:57;;;;;;;;;0.25;0.25;;;;;;;;5384294;22;45837;-69
2023/08/12 07:11:23;;;;;;;;;0.25;0.25;;;;;;;;5039998;28;45269;-69
2023/08/12 07:13:48;;;;;;;;;0.00;0.00;;;;;;;;5033917;28;45306;-69
2023/08/12 07:16:13;;;;;;;;;0.67;0.33;;;;;;;;5037380;28;46027;-69
2023/08/12 07:18:38;;;;;;;;;3.50;2.00;;;;;;;;5030608;28;46033;-69
2023/08/12 07:21:04;;;;;;;;;1.33;1.33;;;;;;;;5040477;28;45291;-69
2023/08/12 07:23:29;;;;;;;;;1.00;1.00;;;;;;;;5033814;28;45453;-69
2023/08/12 07:25:54;;;;;;;;;0.75;0.75;;;;;;;;5039159;28;45527;-69
2023/08/12 07:28:19;;;;;;;;;2.00;1.00;;;;;;;;5034018;28;45478;-69
2023/08/12 07:30:45;;;;;;;;;2.67;1.00;;;;;;;;5039892;28;45253;-69
2023/08/12 07:33:10;;;;;;;;;2.00;1.00;;;;;;;;5034061;28;45268;-69
2023/08/12 07:35:35;;;;;;;;;2.00;1.67;;;;;;;;5039988;28;45351;-69
2023/08/12 07:38:00;;;;;;;;;1.00;1.00;;;;;;;;5035387;28;45429;-69
2023/08/12 07:40:25;;;;;;;;;0.00;0.00;;;;;;;;5038931;28;45472;-69
2023/08/12 07:42:51;;;;;;;;;1.00;0.00;;;;;;;;5037935;28;45283;-68
2023/08/12 07:45:16;;;;;;;;;1.00;1.00;;;;;;;;5040269;28;45437;-69
2023/08/12 07:47:41;;;;;;;;;0.00;0.00;;;;;;;;5038400;28;46416;-70
2023/08/12 07:50:06;;;;;;;;;2.00;1.00;;;;;;;;5040598;28;45355;-72
2023/08/12 07:52:32;;;;;;;;;1.50;0.75;;;;;;;;5036547;28;45173;-72
2023/08/12 07:54:57;;;;;;;;;1.00;1.00;;;;;;;;5038754;28;46354;-72
2023/08/12 07:57:24;;;;;;;;;4.00;0.00;;;;;;;;5029531;28;46291;-70
2023/08/12 07:59:49;;;;;;;;;3.75;0.75;;;;;;;;5037954;28;45951;-70
2023/08/12 08:02:14;;;;;;;;;1.00;1.00;;;;;;;;5031571;28;45165;-70
2023/08/12 08:04:39;;;;;;;;;2.50;1.00;;;;;;;;5027944;28;45257;-70
2023/08/12 08:07:05;;;;;;;;;2.00;0.50;;;;;;;;5038694;28;45441;-70
2023/08/12 08:09:30;;;;;;;;;1.00;1.00;;;;;;;;5033884;28;45339;-70
2023/08/12 08:11:55;;;;;;;;;0.50;0.50;;;;;;;;5039652;28;45567;-70
2023/08/12 08:14:20;;;;;;;;;4.00;2.00;;;;;;;;5034374;28;46340;-70
2023/08/12 08:16:45;;;;;;;;;2.00;2.00;;;;;;;;5038948;28;46067;-70
2023/08/12 08:19:11;;;;;;;;;1.50;1.50;;;;;;;;5033714;28;45398;-70
2023/08/12 08:21:36;;;;;;;;;0.25;0.25;;;;;;;;5039445;28;45327;-70
2023/08/12 08:24:01;;;;;;;;;1.00;1.00;;;;;;;;5034176;28;45457;-70
2023/08/12 08:26:27;;;;;;;;;1.00;1.00;;;;;;;;5030126;28;46113;-70
2023/08/12 08:28:52;;;;;;;;;1.00;1.00;;;;;;;;5035914;28;45264;-70
2023/08/12 08:31:17;;;;;;;;;4.75;1.75;;;;;;;;5038088;28;45343;-70
2023/08/12 08:33:43;;;;;;;;;2.25;1.25;;;;;;;;5036888;28;45480;-71
2023/08/12 08:36:08;;;;;;;;;1.00;1.00;;;;;;;;5037374;28;47011;-71
2023/08/12 08:38:33;;;;;;;;;2.25;1.25;;;;;;;;5036944;28;45346;-70
2023/08/12 08:40:59;;;;;;;;;1.00;1.00;;;;;;;;5039494;28;45539;-70
2023/08/12 08:43:26;;;;;;;;;2.00;2.00;;;;;;;;5037104;28;45407;-70
2023/08/12 08:45:52;;;;;;;;;0.75;0.75;;;;;;;;5039231;28;45279;-70
2023/08/12 08:48:18;;;;;;;;;2.25;0.25;;;;;;;;5037118;28;45453;-70
2023/08/12 08:50:45;;;;;;;;;1.50;1.00;;;;;;;;5037930;28;45421;-70
2023/08/12 08:53:12;;;;;;;;;1.00;1.00;;;;;;;;5034608;28;45386;-70
2023/08/12 08:55:40;;;;;;;;;2.75;1.75;;;;;;;;5038006;28;46340;-70
2023/08/12 08:58:05;;;;;;;;;2.25;1.75;;;;;;;;5036574;28;45331;-70
2023/08/12 09:00:30;;;;;;;;;3.00;2.00;;;;;;;;5038972;28;45315;-71
2023/08/12 09:02:57;;;;;;;;;2.00;2.00;;;;;;;;5036631;28;45541;-70
2023/08/12 09:05:23;;;;;;;;;2.00;1.00;;;;;;;;5038683;28;45360;-70
2023/08/12 09:07:49;;;;;;;;;0.75;0.75;;;;;;;;5036515;28;45303;-70
2023/08/12 09:10:15;;;;;;;;;2.25;1.50;;;;;;;;5037408;28;45271;-70
2023/08/12 09:12:40;;;;;;;;;1.25;1.25;;;;;;;;5036641;28;45663;-70
2023/08/12 09:15:06;;;;;;;;;2.00;1.00;;;;;;;;5038275;28;45911;-70
2023/08/12 09:17:32;;;;;;;;;1.00;1.00;;;;;;;;5036409;28;45346;-70
2023/08/12 09:19:57;;;;;;;;;2.25;2.25;;;;;;;;5034831;28;45331;-70
2023/08/12 09:22:24;;;;;;;;;0.00;0.00;;;;;;;;5036133;28;45260;-70
2023/08/12 09:24:49;;;;;;;;;1.75;1.00;;;;;;;;5038330;28;45560;-69
2023/08/12 09:27:17;;;;;;;;;1.00;1.00;;;;;;;;5029778;28;45465;-70
2023/08/12 09:29:42;;;;;;;;;3.00;1.75;;;;;;;;5034508;28;45393;-70
2023/08/12 09:32:11;;;;;;;;;0.50;0.50;;;;;;;;5036338;28;45947;-70
2023/08/12 09:34:37;;;;;;;;;1.80;0.80;;;;;;;;5038200;28;46248;-70
2023/08/12 09:37:03;;;;;;;;;2.75;1.00;;;;;;;;5036826;28;45372;-70
2023/08/12 09:39:29;;;;;;;;;1.25;1.25;;;;;;;;5032152;28;45449;-72
2023/08/12 09:41:54;;;;;;;;;1.00;1.00;;;;;;;;5038229;28;45340;-70
2023/08/12 09:44:20;;;;;;;;;1.00;1.00;;;;;;;;5032003;28;45833;-69
2023/08/12 09:46:45;;;;;;;;;2.00;2.00;;;;;;;;5038316;28;45248;-70
2023/08/12 09:49:10;;;;;;;;;3.00;1.25;;;;;;;;5032928;28;45403;-70
2023/08/12 09:51:36;;;;;;;;;3.00;1.00;;;;;;;;5032174;28;45449;-71
2023/08/12 09:54:02;;;;;;;;;3.25;2.00;;;;;;;;5029625;28;45449;-70
2023/08/12 09:56:31;;;;;;;;;2.00;0.00;;;;;;;;5036323;28;45314;-70
2023/08/12 09:58:56;;;;;;;;;2.00;2.00;;;;;;;;5033824;28;47274;-70
2023/08/12 10:01:22;;;;;;;;;1.00;1.00;;;;;;;;5036802;28;45978;-70
2023/08/12 10:03:48;;;;;;;;;1.75;1.75;;;;;;;;5031000;28;45486;-70
2023/08/12 10:06:14;;;;;;;;;1.60;1.20;;;;;;;;5037612;28;45359;-70
2023/08/12 10:08:39;;;;;;;;;1.50;1.50;;;;;;;;5032517;28;45253;-70
2023/08/12 10:11:05;;;;;;;;;1.75;1.75;;;;;;;;5036210;28;45473;-70
2023/08/12 10:13:30;;;;;;;;;4.50;1.00;;;;;;;;5035896;28;47704;-70
2023/08/12 10:15:55;;;;;;;;;2.00;2.00;;;;;;;;5037350;28;45232;-70
2023/08/12 10:18:22;;;;;;;;;1.00;1.00;;;;;;;;5033216;28;45569;-70
2023/08/12 10:20:47;;;;;;;;;1.00;1.00;;;;;;;;5036588;28;46033;-69
2023/08/12 10:23:14;;;;;;;;;2.25;2.25;;;;;;;;5031071;28;45519;-69
2023/08/12 10:25:41;;;;;;;;;1.00;1.00;;;;;;;;5036660;28;45347;-69
2023/08/12 10:28:06;;;;;;;;;1.75;1.75;;;;;;;;5034841;28;45442;-69
2023/08/12 10:30:33;;;;;;;;;2.25;2.00;;;;;;;;5036169;28;45795;-68
2023/08/12 10:33:00;;;;;;;;;2.60;1.80;;;;;;;;5034939;28;46554;-69
2023/08/12 10:35:40;;;;;;;;;13.50;12.25;;;;;;;;5037173;28;45395;-69
2023/08/12 10:38:05;;;;;;;;;1.80;1.80;;;;;;;;5034769;28;45588;-69
2023/08/12 10:40:30;;;;;;;;;2.50;1.00;;;;;;;;5032154;28;45486;-68
2023/08/12 10:42:56;;;;;;;;;1.00;1.00;;;;;;;;5037457;28;46094;-69
2023/08/12 10:45:21;;;;;;;;;2.25;1.00;;;;;;;;5040800;28;45378;-69
2023/08/12 10:47:53;;;;;;;;;1.00;1.00;;;;;;;;5037387;28;45579;-69
2023/08/12 10:50:19;;;;;;;;;1.40;0.20;;;;;;;;5040607;28;45220;-69
2023/08/12 10:52:45;;;;;;;;;1.00;0.80;;;;;;;;5038285;28;45467;-68
2023/08/12 10:55:18;;;;;;;;;1.00;1.00;;;;;;;;5034433;28;45386;-68
2023/08/12 10:57:43;;;;;;;;;0.20;0.20;;;;;;;;5038334;28;45538;-68
2023/08/12 11:00:21;;;;;;;;;0.00;0.00;;;;;;;;5038491;28;45433;-68
2023/08/12 11:02:49;;;;;;;;;1.60;0.40;;;;;;;;5035482;28;46304;-69
2023/08/12 11:05:14;;;;;;;;;1.40;0.80;;;;;;;;5042007;28;45483;-70
2023/08/12 11:07:39;;;;;;;;;2.00;1.00;;;;;;;;5039602;28;45225;-70
2023/08/12 11:10:12;;;;;;;;;0.00;0.00;;;;;;;;5036296;28;45345;-70
2023/08/12 11:12:38;;;;;;;;;0.80;0.20;;;;;;;;5038194;28;45394;-71
2023/08/12 11:15:04;;;;;;;;;1.00;1.00;;;;;;;;5037222;28;45370;-71
2023/08/12 11:17:33;;;;;;;;;1.75;1.75;;;;;;;;5036986;28;45384;-72
2023/08/12 11:19:59;;;;;;;;;0.40;0.00;;;;;;;;5035373;28;45471;-72
2023/08/12 11:22:25;;;;;;;;;0.00;0.00;;;;;;;;5037715;28;45454;-71
2023/08/12 11:24:50;;;;;;;;;0.00;0.00;;;;;;;;5038728;28;45344;-71
2023/08/12 11:27:16;;;;;;;;;0.00;0.00;;;;;;;;5038413;28;45306;-71
2023/08/12 11:29:41;;;;;;;;;1.25;0.50;;;;;;;;5033857;28;45547;-72
2023/08/12 11:32:06;;;;;;;;;1.25;1.25;;;;;;;;5038966;28;46208;-72
2023/08/12 11:34:32;;;;;;;;;3.25;3.25;;;;;;;;5030690;28;45788;-72
2023/08/12 11:36:58;;;;;;;;;2.00;0.75;;;;;;;;5039998;28;45393;-71
2023/08/12 11:39:23;;;;;;;;;1.75;0.50;;;;;;;;5030316;28;45584;-71
2023/08/12 11:41:50;;;;;;;;;0.00;0.00;;;;;;;;5039928;28;46193;-72
2023/08/12 11:44:16;;;;;;;;;1.20;0.20;;;;;;;;5032377;28;45281;-72
2023/08/12 11:46:41;;;;;;;;;0.00;0.00;;;;;;;;5040135;28;45310;-72
2023/08/12 11:49:06;;;;;;;;;0.00;0.00;;;;;;;;5037561;28;47023;-73
2023/08/12 11:51:31;;;;;;;;;1.00;0.00;;;;;;;;5038770;28;45302;-72
2023/08/12 11:53:57;;;;;;;;;0.00;0.00;;;;;;;;5032673;28;45323;-74
2023/08/12 11:56:22;;;;;;;;;0.25;0.25;;;;;;;;5039240;28;45356;-72
2023/08/12 11:58:51;;;;;;;;;0.25;0.25;;;;;;;;5032678;28;45403;-72
2023/08/12 12:01:16;;;;;;;;;0.40;0.40;;;;;;;;5039349;28;46047;-73
2023/08/12 12:03:42;;;;;;;;;0.75;0.75;;;;;;;;5032451;28;45489;-72
2023/08/12 12:06:07;;;;;;;;;1.50;0.50;;;;;;;;5039241;28;45300;-72
2023/08/12 12:08:32;;;;;;;;;1.00;1.00;;;;;;;;5032246;28;45462;-73
2023/08/12 12:11:03;;;;;;;;;2.25;0.25;;;;;;;;5035568;28;45331;-72
2023/08/12 12:13:29;;;;;;;;;0.20;0.20;;;;;;;;5034764;28;46430;-69
2023/08/12 12:15:54;;;;;;;;;0.80;0.80;;;;;;;;5038958;28;45415;-69
2023/08/12 12:18:20;;;;;;;;;0.00;0.00;;;;;;;;5036852;28;45420;-68
2023/08/12 12:20:55;;;;;;;;;0.00;0.00;;;;;;;;5039212;28;45276;-69
2023/08/12 12:23:20;;;;;;;;;3.20;3.20;;;;;;;;5036666;28;45361;-72
2023/08/12 12:25:45;;;;;;;;;2.00;0.75;;;;;;;;5038230;28;46485;-71
2023/08/12 12:28:11;;;;;;;;;1.50;0.00;;;;;;;;5036290;28;45533;-71
2023/08/12 12:30:36;;;;;;;;;0.00;0.00;;;;;;;;5038153;28;45272;-72
2023/08/12 12:33:01;;;;;;;;;0.75;0.75;;;;;;;;5036961;28;45780;-71
2023/08/12 12:35:26;;;;;;;;;1.00;0.00;;;;;;;;5038780;28;45329;-71
2023/08/12 12:37:51;;;;;;;;;0.00;0.00;;;;;;;;5036458;28;45509;-71
2023/08/12 12:40:17;;;;;;;;;0.00;0.00;;;;;;;;5038819;28;45492;-71
2023/08/12 12:42:42;;;;;;;;;0.00;0.00;;;;;;;;5035896;28;45639;-71
2023/08/12 12:45:07;;;;;;;;;0.00;0.00;;;;;;;;5037829;28;45463;-72
2023/08/12 12:47:32;;;;;;;;;1.00;0.75;;;;;;;;5036664;28;45423;-70
2023/08/12 12:49:58;;;;;;;;;0.50;0.00;;;;;;;;5038344;28;46646;-71
2023/08/12 12:52:23;;;;;;;;;0.00;0.00;;;;;;;;5036427;28;45484;-71
2023/08/12 12:54:48;;;;;;;;;0.25;0.25;;;;;;;;5034843;28;45462;-71
2023/08/12 12:57:13;;;;;;;;;4.50;2.00;;;;;;;;5037540;28;45356;-71
2023/08/12 12:59:38;;;;;;;;;3.50;0.75;;;;;;;;5032996;28;45437;-71
2023/08/12 13:02:04;;;;;;;;;4.50;3.00;;;;;;;;5037981;28;45385;-67
2023/08/12 13:04:29;;;;;;;;;2.00;2.00;;;;;;;;5030238;28;45477;-72
2023/08/12 13:06:55;;;;;;;;;2.25;2.25;;;;;;;;5038537;28;45438;-72
2023/08/12 13:09:20;;;;;;;;;0.25;0.00;;;;;;;;5031123;28;46469;-72
2023/08/12 13:11:45;;;;;;;;;1.00;0.00;;;;;;;;5038123;28;45367;-71
2023/08/12 13:14:10;;;;;;;;;2.50;1.50;;;;;;;;5032040;28;45295;-72
2023/08/12 13:16:35;;;;;;;;;0.00;0.00;;;;;;;;5034479;28;45439;-71
2023/08/12 13:19:01;;;;;;;;;1.75;0.00;;;;;;;;5031890;28;45894;-71
2023/08/12 13:21:27;;;;;;;;;6.20;5.40;;;;;;;;5036675;28;45220;-71
2023/08/12 13:23:53;;;;;;;;;6.50;4.00;;;;;;;;5033759;28;45467;-71
2023/08/12 13:26:18;;;;;;;;;0.25;0.25;;;;;;;;5037291;28;45248;-70
2023/08/12 13:28:44;;;;;;;;;0.00;0.00;;;;;;;;5035821;28;45424;-70
2023/08/12 13:31:09;;;;;;;;;1.00;1.00;;;;;;;;5024002;28;45268;-70
2023/08/12 13:33:34;;;;;;;;;0.25;0.25;;;;;;;;5032850;28;45542;-71
2023/08/12 13:36:00;;;;;;;;;1.00;0.00;;;;;;;;5034186;28;45531;-71
2023/08/12 13:38:25;;;;;;;;;0.50;0.00;;;;;;;;5031503;28;46115;-71
2023/08/12 13:40:50;;;;;;;;;1.25;0.50;;;;;;;;5037436;28;45307;-70
2023/08/12 13:43:15;;;;;;;;;0.75;0.75;;;;;;;;5034893;28;45308;-71
2023/08/12 13:45:41;;;;;;;;;0.00;0.00;;;;;;;;5038457;28;45201;-70
2023/08/12 13:48:06;;;;;;;;;0.75;0.75;;;;;;;;5031511;28;45411;-69
2023/08/12 13:50:32;;;;;;;;;0.00;0.00;;;;;;;;5037968;28;45237;-71
2023/08/12 13:52:58;;;;;;;;;0.20;0.20;;;;;;;;5034561;28;45386;-70
2023/08/12 13:55:23;;;;;;;;;0.75;0.75;;;;;;;;5034511;28;45426;-71
2023/08/12 13:57:48;;;;;;;;;9.25;6.50;;;;;;;;5033826;28;46592;-71
2023/08/12 14:00:14;;;;;;;;;0.00;0.00;;;;;;;;5025611;28;45351;-70
2023/08/12 14:02:40;;;;;;;;;0.00;0.00;;;;;;;;5032513;28;45404;-70
2023/08/12 14:05:06;;;;;;;;;0.00;0.00;;;;;;;;5029923;28;45906;-71
2023/08/12 14:07:31;;;;;;;;;0.00;0.00;;;;;;;;5035537;28;45578;-70
2023/08/12 14:09:58;;;;;;;;;0.25;0.25;;;;;;;;5028708;28;45644;-70
2023/08/12 14:12:23;;;;;;;;;0.40;0.40;;;;;;;;5035640;28;45294;-71
2023/08/12 14:14:48;;;;;;;;;0.00;0.00;;;;;;;;5032850;28;45517;-71
2023/08/12 14:17:16;;;;;;;;;0.00;0.00;;;;;;;;5040411;28;46091;-70
2023/08/12 14:19:41;;;;;;;;;0.80;0.80;;;;;;;;5038576;28;45247;-71
2023/08/12 14:22:06;;;;;;;;;0.00;0.00;;;;;;;;5040912;28;45271;-70
2023/08/12 14:24:32;;;;;;;;;0.00;0.00;;;;;;;;5038693;28;45386;-71
2023/08/12 14:26:57;;;;;;;;;0.00;0.00;;;;;;;;5040004;28;47919;-70
2023/08/12 14:29:22;;;;;;;;;0.75;0.75;;;;;;;;5039260;28;45406;-71
2023/08/12 14:31:47;;;;;;;;;2.25;1.00;;;;;;;;5041395;28;45599;-70
2023/08/12 14:34:12;;;;;;;;;0.25;0.25;;;;;;;;5039069;28;46085;-70
2023/08/12 14:36:38;;;;;;;;;0.50;0.50;;;;;;;;5040872;28;46286;-70
2023/08/12 14:39:03;;;;;;;;;0.00;0.00;;;;;;;;5037987;28;45500;-70
2023/08/12 14:41:28;;;;;;;;;0.00;0.00;;;;;;;;5039584;28;45450;-71
2023/08/12 14:43:53;;;;;;;;;1.00;0.00;;;;;;;;5037740;28;45529;-70
2023/08/12 14:46:18;;;;;;;;;0.00;0.00;;;;;;;;5040674;28;45263;-70
2023/08/12 14:48:44;;;;;;;;;0.25;0.25;;;;;;;;5036568;28;45426;-69
2023/08/12 14:51:09;;;;;;;;;2.00;2.00;;;;;;;;5040766;28;45287;-69
2023/08/12 14:53:34;;;;;;;;;0.50;0.00;;;;;;;;5034593;28;45352;-70
2023/08/12 14:56:00;;;;;;;;;0.25;0.25;;;;;;;;5040059;28;46490;-69
2023/08/12 14:58:25;;;;;;;;;2.40;0.00;;;;;;;;5031991;28;45469;-70
2023/08/12 15:00:51;;;;;;;;;0.00;0.00;;;;;;;;5040270;28;45357;-70
2023/08/12 15:03:16;;;;;;;;;0.50;0.00;;;;;;;;5035857;28;45268;-71
2023/08/12 15:05:41;;;;;;;;;0.50;0.50;;;;;;;;5040565;28;45303;-70
2023/08/12 15:08:06;;;;;;;;;1.50;1.50;;;;;;;;5034364;28;45403;-71
2023/08/12 15:10:31;;;;;;;;;1.00;0.00;;;;;;;;5036259;28;45397;-70
2023/08/12 15:12:57;;;;;;;;;3.25;2.25;;;;;;;;5035887;28;45419;-70
2023/08/12 15:15:22;;;;;;;;;0.00;0.00;;;;;;;;5036621;28;46333;-70
2023/08/12 15:17:47;;;;;;;;;1.75;0.75;;;;;;;;5037097;28;45137;-70
2023/08/12 15:20:13;;;;;;;;;0.50;0.50;;;;;;;;5037828;28;45439;-70
2023/08/12 15:22:38;;;;;;;;;2.00;1.00;;;;;;;;5038238;28;45202;-70
2023/08/12 15:25:03;;;;;;;;;0.25;0.00;;;;;;;;5038625;28;46594;-71
2023/08/12 15:27:30;;;;;;;;;2.50;0.75;;;;;;;;5036896;28;45257;-70
2023/08/12 15:29:55;;;;;;;;;1.00;0.80;;;;;;;;5031494;28;45245;-70
2023/08/12 15:32:20;;;;;;;;;1.00;1.00;;;;;;;;5038327;28;45266;-70
2023/08/12 15:34:46;;;;;;;;;1.50;1.00;;;;;;;;5031509;28;46016;-70
2023/08/12 15:37:11;;;;;;;;;0.00;0.00;;;;;;;;5039358;28;45343;-70
2023/08/12 15:39:36;;;;;;;;;0.00;0.00;;;;;;;;5038195;28;45466;-70
2023/08/12 15:42:02;;;;;;;;;0.25;0.25;;;;;;;;5040048;28;45226;-70
2023/08/12 15:44:27;;;;;;;;;2.50;2.25;;;;;;;;5031601;28;45733;-70
2023/08/12 15:46:52;;;;;;;;;2.50;1.25;;;;;;;;5039973;28;45409;-70
2023/08/12 15:49:17;;;;;;;;;2.75;1.00;;;;;;;;5033518;28;45377;-70
2023/08/12 15:51:42;;;;;;;;;0.25;0.25;;;;;;;;5039634;28;45326;-70
2023/08/12 15:54:08;;;;;;;;;1.00;1.00;;;;;;;;5032744;28;46180;-70
2023/08/12 15:56:36;;;;;;;;;1.00;1.00;;;;;;;;5039630;28;45309;-71
2023/08/12 15:59:01;;;;;;;;;0.20;0.20;;;;;;;;5033055;28;45342;-70
2023/08/12 16:01:26;;;;;;;;;2.25;1.00;;;;;;;;5039509;28;45574;-69
2023/08/12 16:03:52;;;;;;;;;0.00;0.00;;;;;;;;5032834;28;45705;-69
2023/08/12 16:06:17;;;;;;;;;1.50;1.50;;;;;;;;5038105;28;45608;-70
2023/08/12 16:08:42;;;;;;;;;1.00;1.00;;;;;;;;5032445;28;45181;-68
2023/08/12 16:11:08;;;;;;;;;2.00;2.00;;;;;;;;5039633;28;45510;-69
2023/08/12 16:13:35;;;;;;;;;1.00;1.00;;;;;;;;5036578;28;46165;-69
2023/08/12 16:16:01;;;;;;;;;0.40;0.20;;;;;;;;5033367;28;45478;-69
2023/08/12 16:18:26;;;;;;;;;1.75;1.75;;;;;;;;5036802;28;46351;-70
2023/08/12 16:20:52;;;;;;;;;1.25;1.00;;;;;;;;5038233;28;45300;-70
2023/08/12 16:23:17;;;;;;;;;2.25;2.00;;;;;;;;5037103;28;45723;-69
2023/08/12 16:25:42;;;;;;;;;0.25;0.25;;;;;;;;5038047;28;45564;-68
2023/08/12 16:28:08;;;;;;;;;1.50;1.25;;;;;;;;5036265;28;46721;-69
2023/08/12 16:30:33;;;;;;;;;1.50;1.00;;;;;;;;5037911;28;46558;-70
2023/08/12 16:32:58;;;;;;;;;0.50;0.50;;;;;;;;5031782;28;46195;-69
2023/08/12 16:35:23;;;;;;;;;2.25;1.50;;;;;;;;5037792;28;45426;-69
2023/08/12 16:37:49;;;;;;;;;1.00;1.00;;;;;;;;5035818;28;45333;-69
2023/08/12 16:40:14;;;;;;;;;3.25;1.00;;;;;;;;5036234;28;45284;-69
2023/08/12 16:42:39;;;;;;;;;3.25;1.25;;;;;;;;5036344;28;46139;-69
2023/08/12 16:45:05;;;;;;;;;3.00;2.00;;;;;;;;5034328;28;45331;-69
2023/08/12 16:47:30;;;;;;;;;1.50;1.00;;;;;;;;5034146;28;45684;-69
2023/08/12 16:49:55;;;;;;;;;1.25;1.25;;;;;;;;5037622;28;45959;-69
2023/08/12 16:52:20;;;;;;;;;0.75;0.75;;;;;;;;5036945;28;45419;-69
2023/08/12 16:54:45;;;;;;;;;0.50;0.50;;;;;;;;5034150;28;45441;-69
2023/08/12 16:57:11;;;;;;;;;1.00;1.00;;;;;;;;5038312;28;45369;-69
2023/08/12 16:59:36;;;;;;;;;2.00;2.00;;;;;;;;5029702;28;45391;-70
2023/08/12 17:02:01;;;;;;;;;2.75;1.00;;;;;;;;5038665;28;45535;-70
2023/08/12 17:04:26;;;;;;;;;2.25;1.00;;;;;;;;5037345;28;45517;-68
2023/08/12 17:06:52;;;;;;;;;3.50;2.25;;;;;;;;5041165;28;45396;-70
2023/08/12 17:09:17;;;;;;;;;2.25;1.25;;;;;;;;5034022;28;45339;-71
2023/08/12 17:11:43;;;;;;;;;2.00;2.00;;;;;;;;5035321;28;46171;-70
2023/08/12 17:14:09;;;;;;;;;3.00;0.25;;;;;;;;5033040;28;46374;-71
2023/08/12 17:16:34;;;;;;;;;3.00;0.60;;;;;;;;5036030;28;45403;-70
2023/08/12 17:18:59;;;;;;;;;2.25;0.25;;;;;;;;5035328;28;45517;-71
2023/08/12 17:21:25;;;;;;;;;2.00;2.00;;;;;;;;5036986;28;45300;-71
2023/08/12 17:23:50;;;;;;;;;2.50;2.50;;;;;;;;5034321;28;45347;-70
2023/08/12 17:26:15;;;;;;;;;0.75;0.75;;;;;;;;5036994;28;45335;-71
2023/08/12 17:28:40;;;;;;;;;4.25;3.50;;;;;;;;5036399;28;45521;-70
2023/08/12 17:31:06;;;;;;;;;1.75;1.75;;;;;;;;5037119;28;48202;-71
2023/08/12 17:33:31;;;;;;;;;3.00;3.00;;;;;;;;5033762;28;45316;-71
2023/08/12 17:35:56;;;;;;;;;7.50;6.00;;;;;;;;5036954;28;45551;-70
2023/08/12 17:38:21;;;;;;;;;5.00;5.00;;;;;;;;5035826;28;45464;-70
2023/08/12 17:40:49;;;;;;;;;3.75;3.25;;;;;;;;5036354;28;45215;-70
2023/08/12 17:43:15;;;;;;;;;2.80;0.80;;;;;;;;5034460;28;45353;-71
2023/08/12 17:45:40;;;;;;;;;4.25;2.00;;;;;;;;5038389;28;45322;-72
2023/08/12 17:48:06;;;;;;;;;1.25;1.25;;;;;;;;5036013;28;45454;-72
2023/08/12 17:50:31;;;;;;;;;2.60;2.20;;;;;;;;5036836;28;45354;-72
2023/08/12 17:52:57;;;;;;;;;3.50;3.50;;;;;;;;5039765;28;45313;-72
2023/08/12 17:55:22;;;;;;;;;4.25;4.25;;;;;;;;5032723;28;45300;-71
2023/08/12 17:57:47;;;;;;;;;3.50;2.50;;;;;;;;5039231;28;45253;-72
2023/08/12 18:00:13;;;;;;;;;3.75;1.00;;;;;;;;5037885;28;45373;-71
2023/08/12 18:02:39;;;;;;;;;4.20;2.60;;;;;;;;5037854;28;45363;-71
2023/08/12 18:05:04;;;;;;;;;2.25;2.25;;;;;;;;5041407;28;46171;-72
2023/08/12 18:07:30;;;;;;;;;3.00;3.00;;;;;;;;5037663;28;45599;-72
2023/08/12 18:09:55;;;;;;;;;2.00;2.00;;;;;;;;5034367;28;46123;-72
2023/08/12 18:12:20;;;;;;;;;0.75;0.75;;;;;;;;5040207;28;45210;-72
2023/08/12 18:14:45;;;;;;;;;2.00;2.00;;;;;;;;5037223;28;45540;-72
2023/08/12 18:17:10;;;;;;;;;9.00;7.00;;;;;;;;5040769;28;45564;-72
2023/08/12 18:19:36;;;;;;;;;10.00;8.50;;;;;;;;5039310;28;47748;-71
2023/08/12 18:22:02;;;;;;;;;58.00;45.67;;;;;;;;5041409;28;45268;-72
2023/08/12 18:24:27;;;;;;;;;35.67;32.67;;;;;;;;5031479;28;45492;-71
2023/08/12 18:26:53;;;;;;;;;9.75;9.75;;;;;;;;5041393;28;45539;-71
2023/08/12 18:29:18;;;;;;;;;8.25;7.50;;;;;;;;5033049;28;45608;-71
2023/08/12 18:31:43;;;;;;;;;6.00;5.50;;;;;;;;5041242;28;45346;-72
2023/08/12 18:34:08;;;;;;;;;3.25;2.75;;;;;;;;5035815;28;45370;-72
2023/08/12 18:36:33;;;;;;;;;2.00;2.00;;;;;;;;5039537;28;45550;-71
2023/08/12 18:38:59;;;;;;;;;2.00;1.50;;;;;;;;5034318;28;46112;-70
2023/08/12 18:41:24;;;;;;;;;3.00;1.50;;;;;;;;5039538;28;45335;-70
2023/08/12 18:43:49;;;;;;;;;4.00;2.00;;;;;;;;5034229;28;45428;-71
2023/08/12 18:46:15;;;;;;;;;1.00;1.00;;;;;;;;5041094;28;45499;-71
2023/08/12 18:48:40;;;;;;;;;2.25;2.25;;;;;;;;5034474;28;45446;-71
2023/08/12 18:51:05;;;;;;;;;3.00;2.00;;;;;;;;5040824;28;45356;-70
2023/08/12 18:53:30;;;;;;;;;3.00;1.25;;;;;;;;5034916;28;45635;-70
2023/08/12 18:55:56;;;;;;;;;3.00;2.00;;;;;;;;5040715;28;45422;-70
2023/08/12 18:58:21;;;;;;;;;2.00;2.00;;;;;;;;5033596;28;47293;-70
2023/08/12 19:00:47;;;;;;;;;1.75;1.75;;;;;;;;5040275;28;46263;-70
2023/08/12 19:03:12;;;;;;;;;1.25;1.00;;;;;;;;5036287;28;45469;-69
2023/08/12 19:05:37;;;;;;;;;1.00;1.00;;;;;;;;5041428;28;45578;-70
2023/08/12 19:08:02;;;;;;;;;2.50;1.00;;;;;;;;5038649;28;46019;-70
2023/08/12 19:10:28;;;;;;;;;2.00;2.00;;;;;;;;5040496;28;45378;-70
2023/08/12 19:12:53;;;;;;;;;2.50;2.50;;;;;;;;5037427;28;45428;-70
2023/08/12 19:15:18;;;;;;;;;2.50;2.00;;;;;;;;5039295;28;45565;-71
2023/08/12 19:17:43;;;;;;;;;2.00;2.00;;;;;;;;5038267;28;45310;-70
2023/08/12 19:20:09;;;;;;;;;3.25;2.50;;;;;;;;5040125;28;45250;-70
2023/08/12 19:22:34;;;;;;;;;3.00;3.00;;;;;;;;5038116;28;45236;-70
2023/08/12 19:25:00;;;;;;;;;2.25;2.00;;;;;;;;5039424;28;45740;-70
2023/08/12 19:27:25;;;;;;;;;3.00;3.00;;;;;;;;5038541;28;45208;-70
2023/08/12 19:29:50;;;;;;;;;2.00;2.00;;;;;;;;5039799;28;45377;-70
2023/08/12 19:32:15;;;;;;;;;3.50;3.50;;;;;;;;5038431;28;45441;-70
2023/08/12 19:34:41;;;;;;;;;2.00;2.00;;;;;;;;5032026;28;45185;-69
2023/08/12 19:37:07;;;;;;;;;5.50;2.75;;;;;;;;5040082;28;46057;-70
2023/08/12 19:39:32;;;;;;;;;4.00;3.00;;;;;;;;5037951;28;45456;-70
2023/08/12 19:41:57;;;;;;;;;4.75;3.75;;;;;;;;5040212;28;45204;-70
2023/08/12 19:44:22;;;;;;;;;5.00;3.00;;;;;;;;5033683;28;45281;-70
2023/08/12 19:46:48;;;;;;;;;3.75;3.00;;;;;;;;5039877;28;45196;-70
2023/08/12 19:49:13;;;;;;;;;5.00;3.00;;;;;;;;5034991;28;45464;-69
2023/08/12 19:51:38;;;;;;;;;4.00;4.00;;;;;;;;5040066;28;45513;-70
2023/08/12 19:54:04;;;;;;;;;6.00;4.75;;;;;;;;5035864;28;45379;-71
2023/08/12 19:56:30;;;;;;;;;2.00;1.75;;;;;;;;5039320;28;45358;-71
2023/08/12 19:58:55;;;;;;;;;5.25;5.25;;;;;;;;5037261;28;45458;-71
2023/08/12 20:01:20;;;;;;;;;4.25;4.25;;;;;;;;5039749;28;45296;-71
2023/08/12 20:03:45;;;;;;;;;3.50;3.00;;;;;;;;5037633;28;45269;-70
2023/08/12 20:06:11;;;;;;;;;4.00;2.75;;;;;;;;5038056;28;47220;-70
2023/08/12 20:08:36;;;;;;;;;5.50;3.75;;;;;;;;5037012;28;45415;-70
2023/08/12 20:11:01;;;;;;;;;4.00;3.00;;;;;;;;5039682;28;45445;-70
2023/08/12 20:13:26;;;;;;;;;4.00;2.00;;;;;;;;5035154;28;45516;-69
2023/08/12 20:15:57;;;;;;;;;3.00;3.00;;;;;;;;5038969;28;45354;-69
2023/08/12 20:18:22;;;;;;;;;3.50;3.25;;;;;;;;5037088;28;45471;-70
2023/08/12 20:20:48;;;;;;;;;3.75;3.75;;;;;;;;5039543;28;45292;-69
2023/08/12 20:23:13;;;;;;;;;5.00;3.25;;;;;;;;5037256;28;45749;-69
2023/08/12 20:25:38;;;;;;;;;6.00;5.00;;;;;;;;5038979;28;45274;-69
2023/08/12 20:28:04;;;;;;;;;4.50;4.00;;;;;;;;5037200;28;45320;-69
2023/08/12 20:30:32;;;;;;;;;5.00;5.00;;;;;;;;5035204;28;45332;-68
2023/08/12 20:32:57;;;;;;;;;5.75;5.75;;;;;;;;5037188;28;45699;-69
2023/08/12 20:35:22;;;;;;;;;4.75;4.75;;;;;;;;5036222;28;45640;-69
2023/08/12 20:37:48;;;;;;;;;7.00;6.75;;;;;;;;5036956;28;45315;-70
2023/08/12 20:40:13;;;;;;;;;6.00;5.00;;;;;;;;5035452;28;45450;-70
2023/08/12 20:42:38;;;;;;;;;7.00;5.25;;;;;;;;5037076;28;45959;-70
2023/08/12 20:45:04;;;;;;;;;4.00;4.00;;;;;;;;5034411;28;45551;-70
2023/08/12 20:47:29;;;;;;;;;5.25;4.00;;;;;;;;5037225;28;45223;-70
2023/08/12 20:49:55;;;;;;;;;4.00;4.00;;;;;;;;5035355;28;45323;-70
2023/08/12 20:52:20;;;;;;;;;3.75;2.00;;;;;;;;5036488;28;47634;-69
2023/08/12 20:54:45;;;;;;;;;8.00;5.50;;;;;;;;5035499;28;45362;-70
2023/08/12 20:57:11;;;;;;;;;4.00;4.00;;;;;;;;5038566;28;45158;-70
2023/08/12 20:59:36;;;;;;;;;3.25;3.00;;;;;;;;5031336;28;45402;-71
2023/08/12 21:02:01;;;;;;;;;5.00;4.00;;;;;;;;5038545;28;45512;-71
2023/08/12 21:04:26;;;;;;;;;5.00;3.25;;;;;;;;5036844;28;47199;-71
2023/08/12 21:06:58;;;;;;;;;3.00;3.00;;;;;;;;5040710;28;45336;-71
